Tiempo atmosférico en la estación meteorológica de Monesterio, Badajoz (750 m.)



Fecha
DESCASC
Temp. máxima en grados centígrados (hora)
DESCASC
Temp. mínima en grados centígrados (hora)
DESCASC
Temp. media en grados centígrados
DESCASC
Racha de viento máxima en m/sg (hora)
DESCASC
Velocidad máxima media en intervalos de 10 minutos(hora)
DESCASC
Precipitaciones diarias en mm
DESCASC
Precipitaciones de 00:00 a 06:00 en mm
DESCASC
Precipitaciones de 06:00 a 12:00 en mm
DESCASC
Precipitaciones de 12:00 a 18:00 en mm
DESCASC
Precipitaciones de 18:00 a 24:00 en mm
DESCASC
25-04-2019 13 (17:20) 6.8 (08:00) 9.9 13.33 (00:20) 7.22 (00:20) 5.6 5.4 0.2 0 0
24-04-2019 11.4 (19:10) 4.7 (02:00) 8 16.67 (08:00) 8.06 (16:40) 36.6 0 9.4 17 10.2
23-04-2019 11.7 (00:00) 4.8 (21:30) 8.3 14.44 (13:20) 6.94 (15:30) 6.8 5.4 0.2 1 0.2
22-04-2019 18.1 (15:50) 7.8 (00:00) 13 10.83 (17:10) 6.11 (17:10) 0 0 0 0 0
21-04-2019 14.6 (16:10) 6 (00:00) 10.3 11.11 (12:00) 6.67 (11:50) 0 0 0 0 0
20-04-2019 12.2 (15:00) 6 (00:00) 9.1 16.39 (17:10) 9.72 (17:10) 0.6 0 0.6 0 0
19-04-2019 13 (13:50) 6.7 (00:00) 9.8 5.83 (02:20) 3.61 (02:20) 16.4 0.4 7.8 2.6 5.6
18-04-2019 12.8 (13:50) 7.1 (00:00) 10 8.89 (19:10) 6.11 (19:20) 15.8 0.8 2 6.6 6.4
17-04-2019 15.1 (12:30) 8.4 (00:00) 11.8 13.61 (14:00) 6.67 (16:20) 1.2 0 0 0 1.2
16-04-2019 19.5 (16:30) 5.9 (00:00) 12.7 10.28 (23:20) 5.83 (23:20) 0 0 0 0 0
15-04-2019 19.6 (14:30) 10 (00:00) 14.8 10.28 (08:10) 5.83 (07:30) 0 0 0 0 0
14-04-2019 22.3 (16:40) 10.2 (00:00) 16.2 6.11 (00:30) 4.17 (00:20) 0 0 0 0 0
13-04-2019 19.9 (17:10) 8.4 (00:00) 14.1 7.22 (15:30) 3.61 (19:50) 0 0 0 0 0
12-04-2019 17.4 (17:10) 6.3 (00:00) 11.8 7.5 (15:40) 3.33 (12:30) 0 0 0 0 0
11-04-2019 15.4 (16:50) 4.5 (00:00) 9.9 7.78 (00:10) 4.17 (00:10) 0 0 0 0 0
10-04-2019 12.7 (15:40) 5.3 (00:00) 9 11.39 (16:50) 6.11 (17:10) 0 0 0 0 0
09-04-2019 12.5 (17:20) 5.5 (00:00) 9 12.5 (15:10) 6.11 (15:10) 1.8 0 0.2 0.6 1
08-04-2019 13.5 (17:50) 7.3 (00:00) 10.4 10.28 (19:00) 5 (19:00) 5.4 1.4 4 0 0
07-04-2019 10.3 (19:10) 5.1 (00:00) 7.7 10.56 (00:30) 5.28 (16:40) 5 0.2 0.6 1.4 2.8
06-04-2019 9.6 (15:30) 3.6 (00:00) 6.6 13.06 (17:50) 6.11 (13:20) 9.6 1.6 1.8 3.2 3
05-04-2019 9.8 (17:10) 4.4 (00:00) 7.1 13.33 (20:00) 6.11 (16:30) 6.2 1.8 3.2 0 1.2
04-04-2019 14 (16:50) 2 (00:00) 8 7.78 (23:10) 4.72 (05:50) 0 0 0 0 0
03-04-2019 15.9 (15:20) 7 (00:00) 11.4 9.44 (18:10) 5 (16:30) 0 0 0 0 0
02-04-2019 17.8 (17:20) 6.8 (00:00) 12.3 6.11 (17:00) 3.33 (12:30) 0 0 0 0 0
01-04-2019 16.6 (15:30) 8.5 (00:00) 12.6 9.17 (16:40) 4.72 (16:40) 2.2 0 0 2.2 0
31-03-2019 14.4 (14:10) 7.9 (00:00) 11.1 5.83 (01:40) 3.61 (06:40) 1.6 0 0 1.6 0
30-03-2019 18.6 (15:10) 6.8 (00:00) 12.7 6.94 (05:40) 4.17 (05:40) 0 0 0 0 0
29-03-2019 17.6 (16:50) 5.4 (00:00) 11.5 9.44 (08:40) 5.83 (09:20) 0 0 0 0 0
28-03-2019 16 (15:40) 5.1 (00:00) 10.5 10 (10:50) 5.83 (12:20) 0 0 0 0 0
27-03-2019 17.9 (17:20) 6.7 (00:00) 12.3 9.17 (16:00) 6.11 (14:10) 0 0 0 0 0

Gráficas

Temp. máximas Temp. mínimas Temp. medias Precipitaciones Rachas de viento máximas Velocidades máximas media en intervalos de 10 minutos

Datos horarios

Fecha y hora oficial Temperatura (ºC) Velocidad del viento (km/h) Dirección del viento Racha (km/h) Dirección de racha Precipitación (mm) Presión (hPa) Tendencia (hPa) Humedad (%)
2019-04-25 23:00:00 8.1 14 Oeste 24 Oeste 0 -- -- 78
2019-04-25 22:00:00 8.6 9 Oeste 26 Oeste 0 -- -- 73
2019-04-25 21:00:00 9.8 6 Noroeste 33 Oeste 0 -- -- 72
2019-04-25 20:00:00 11.2 15 Noroeste 31 Oeste 0 -- -- 65
2019-04-25 19:00:00 12.1 13 Oeste 39 Oeste 0 -- -- 62
2019-04-25 18:00:00 12.9 21 Oeste 41 Oeste 0 -- -- 56
2019-04-25 17:00:00 12.1 18 Oeste 42 Oeste 0 -- -- 68
2019-04-25 16:00:00 12.3 16 Oeste 37 Oeste 0 -- -- 64
2019-04-25 15:00:00 11.2 16 Oeste 41 Oeste 0 -- -- 69
2019-04-25 14:00:00 11 16 Oeste 44 Sudoeste 0 -- -- 72
2019-04-25 13:00:00 10.7 18 Oeste 38 Noroeste 0 -- -- 75
2019-04-25 12:00:00 8.5 13 Oeste 31 Oeste 0.2 -- -- 86
2019-04-25 11:00:00 7.9 17 Noroeste 40 Noroeste 0 -- -- 89
2019-04-25 10:00:00 8.9 14 Oeste 35 Oeste 0 -- -- 86
2019-04-25 09:00:00 7.4 12 Oeste 29 Oeste 0 -- -- 93
2019-04-25 08:00:00 6.8 9 Oeste 37 Oeste 0 -- -- 94
2019-04-25 07:00:00 7.2 12 Oeste 31 Oeste 0 -- -- 94
2019-04-25 06:00:00 7.9 7 Oeste 28 Oeste 0 -- -- 95
2019-04-25 05:00:00 8.2 7 Oeste 19 Oeste 0.4 -- -- 99
2019-04-25 04:00:00 8.2 7 Oeste 20 Oeste 0.2 -- -- 97
2019-04-25 03:00:00 8.4 10 Oeste 25 Oeste 0 -- -- 97
2019-04-25 02:00:00 9.7 11 Oeste 37 Sudoeste 0.8 -- -- 96
2019-04-25 01:00:00 10.9 12 Oeste 48 Sudoeste 4 -- -- 97
2019-04-25 00:00:00 10.9 23 Sudoeste 58 Sudoeste 1.4 -- -- 96
2019-04-24 23:00:00 11 20 Sudoeste 50 Sudoeste 1 -- -- 97
2019-04-24 22:00:00 10.9 20 Sudoeste 42 Sudoeste 0.6 -- -- 96
2019-04-24 21:00:00 11 16 Sudoeste 36 Sudoeste 0.4 -- -- 96
2019-04-24 20:00:00 11.1 21 Sudoeste 44 Oeste 0.4 -- -- 95
2019-04-24 19:00:00 11.2 17 Sudoeste 46 Sur 6.4 -- -- 95
2019-04-24 18:00:00 11.1 20 Sudoeste 51 Sudoeste 3.2 -- -- 97
2019-04-24 17:00:00 11.2 26 Sudoeste 55 Sudoeste 2.8 -- -- 96
2019-04-24 16:00:00 11 23 Sur 43 Sur 6 -- -- 96
2019-04-24 15:00:00 10.7 23 Sur 49 Sur 2.6 -- -- 96
2019-04-24 14:00:00 10.3 23 Sur 50 Sur 1.2 -- -- 97
2019-04-24 13:00:00 10 23 Sur 49 Sur 1.2 -- -- 98
2019-04-24 12:00:00 9.3 21 Sur 42 Sudoeste 1.6 -- -- 97
2019-04-24 11:00:00 8.4 19 Sudoeste 40 Sudoeste 3.6 -- -- 97
2019-04-24 10:00:00 7.6 20 Sur 46 Sur 2.6 -- -- 97
2019-04-24 09:00:00 7.3 22 Sur 49 Sudoeste 1.4 -- -- 96
2019-04-24 08:00:00 6.9 27 Sur 60 Sudoeste 0 -- -- 93
2019-04-24 07:00:00 6.5 26 Sudoeste 51 Sur 0.2 -- -- 94
2019-04-24 06:00:00 5.8 15 Sur 38 Sudoeste 0 -- -- 95
2019-04-24 05:00:00 5.6 17 Sudoeste 37 Sudoeste 0 -- -- 94
2019-04-24 04:00:00 5.2 15 Sudoeste 32 Sudoeste 0 -- -- 95
2019-04-24 03:00:00 4.9 9 Sudoeste 24 Sudoeste 0 -- -- 94
2019-04-24 02:00:00 4.7 8 Sudoeste 19 Sudoeste 0 -- -- 92
2019-04-24 01:00:00 5.2 10 Sudoeste 24 Sudoeste 0 -- -- 87
2019-04-24 00:00:00 5.2 8 Sudoeste 23 Sudoeste 0 -- -- 88
2019-04-23 23:00:00 5.3 8 Sudoeste 23 Sudoeste 0 -- -- 88
2019-04-23 22:00:00 5.5 11 Sudoeste 22 Oeste 0 -- -- 81
2019-04-23 21:00:00 5.5 8 Oeste 27 Noroeste 0.2 -- -- 86
2019-04-23 20:00:00 7.1 9 Noroeste 30 Oeste 0 -- -- 79
2019-04-23 19:00:00 8.7 13 Oeste 28 Oeste 0 -- -- 70
2019-04-23 18:00:00 8.5 14 Oeste 40 Sudoeste 0 -- -- 72
2019-04-23 17:00:00 9.4 14 Oeste 33 Oeste 0.2 -- -- 72
2019-04-23 16:00:00 5.3 13 Oeste 50 Oeste 0.6 -- -- 91
2019-04-23 15:00:00 8.5 14 Noroeste 34 Oeste 0 -- -- 73
2019-04-23 14:00:00 8.5 15 Oeste 52 Oeste 0.2 -- -- 74
2019-04-23 13:00:00 8.8 18 Oeste 39 Oeste 0 -- -- 77
2019-04-23 12:00:00 7.7 12 Oeste 35 Oeste 0.2 -- -- 84
2019-04-23 11:00:00 7 14 Oeste 30 Oeste 0 -- -- 88
2019-04-23 10:00:00 6.8 13 Oeste 26 Oeste 0 -- -- 88
2019-04-23 09:00:00 4.9 12 Oeste 31 Oeste 0 -- -- 96
2019-04-23 08:00:00 5 15 Noroeste 27 Noroeste 0 -- -- 96
2019-04-23 07:00:00 5.8 13 Noroeste 32 Noroeste 0 -- -- 96
2019-04-23 06:00:00 6 14 Noroeste 33 Oeste 1.4 -- -- 96
2019-04-23 05:00:00 6.8 16 Oeste 35 Oeste 3.4 -- -- 96
2019-04-23 04:00:00 8.9 12 Sur 36 Sudoeste 0.6 -- -- 94
2019-04-23 03:00:00 9.4 16 Sur 33 Sudoeste 0 -- -- 88
2019-04-23 02:00:00 10.1 15 Sudoeste 38 Sur 0 -- -- 86
2019-04-23 01:00:00 10.6 13 Sudoeste 28 Sudoeste 0 -- -- 87
2019-04-23 00:00:00 11.7 8 Sudoeste 18 Sudoeste 0 -- -- 78
2019-04-22 23:00:00 12.5 7 Sudoeste 19 Sudoeste 0 -- -- 65
2019-04-22 22:00:00 13.2 6 Sudoeste 15 Sudoeste 0 -- -- 57
2019-04-22 21:00:00 14 5 Oeste 21 Oeste 0 -- -- 57
2019-04-22 20:00:00 15.4 12 Oeste 33 Oeste 0 -- -- 45
2019-04-22 19:00:00 17 16 Oeste 31 Oeste 0 -- -- 47
2019-04-22 18:00:00 17.7 17 Oeste 39 Oeste 0 -- -- 42
2019-04-22 17:00:00 18 16 Oeste 34 Oeste 0 -- -- 40
2019-04-22 16:00:00 18.1 18 Oeste 36 Oeste 0 -- -- 43
2019-04-22 15:00:00 17.6 19 Oeste 39 Sudoeste 0 -- -- 39
2019-04-22 14:00:00 17.4 17 Oeste 32 Oeste 0 -- -- 36
2019-04-22 13:00:00 16.8 15 Oeste 27 Oeste 0 -- -- 53
2019-04-22 12:00:00 15.7 11 Noroeste 21 Oeste 0 -- -- 58
2019-04-22 11:00:00 14.3 10 Oeste 17 Oeste 0 -- -- 61
2019-04-22 10:00:00 10.6 0 Calma 5 Sudoeste 0 -- -- 79
2019-04-22 09:00:00 10 4 Sudoeste 11 Sudoeste 0 -- -- 74
2019-04-22 08:00:00 8 4 Sudoeste 8 Sudoeste 0 -- -- 82
2019-04-22 07:00:00 7.8 6 Sudoeste 10 Oeste 0 -- -- 78
2019-04-22 06:00:00 7.9 6 Oeste 8 Oeste 0 -- -- 79
2019-04-22 05:00:00 8.7 7 Oeste 9 Sudoeste 0 -- -- 77
2019-04-22 04:00:00 9.5 6 Oeste 9 Oeste 0 -- -- 76
2019-04-22 03:00:00 9.3 5 Oeste 8 Oeste 0 -- -- 78
2019-04-22 02:00:00 9.5 2 Sudoeste 5 Este 0 -- -- 80
2019-04-22 01:00:00 9.4 2 Sur 5 Sudoeste 0 -- -- 81
2019-04-22 00:00:00 9.4 0 Calma 5 Nordeste 0 -- -- 82
2019-04-21 23:00:00 9.7 0 Calma 3 Nordeste 0 -- -- 80
2019-04-21 22:00:00 10 0 Calma 7 Nordeste 0 -- -- 75
2019-04-21 21:00:00 11.7 5 Nordeste 18 Nordeste 0 -- -- 68
2019-04-21 20:00:00 12.7 11 Nordeste 23 Nordeste 0 -- -- 64
2019-04-21 19:00:00 13.7 11 Norte 23 Nordeste 0 -- -- 59
2019-04-21 18:00:00 13.3 10 Nordeste 24 Nordeste 0 -- -- 64
2019-04-21 17:00:00 13.8 14 Nordeste 28 Nordeste 0 -- -- 62
2019-04-21 16:00:00 14.3 14 Nordeste 30 Nordeste 0 -- -- 60
2019-04-21 15:00:00 13.5 18 Norte 35 Nordeste 0 -- -- 63
2019-04-21 14:00:00 13 15 Nordeste 37 Nordeste 0 -- -- 63
2019-04-21 13:00:00 13 18 Nordeste 39 Nordeste 0 -- -- 66
2019-04-21 12:00:00 11.4 23 Nordeste 40 Nordeste 0 -- -- 70
2019-04-21 11:00:00 10.2 22 Nordeste 35 Norte 0 -- -- 73
2019-04-21 10:00:00 8.8 15 Nordeste 30 Nordeste 0 -- -- 78
2019-04-21 09:00:00 7.3 13 Nordeste 23 Norte 0 -- -- 86
2019-04-21 08:00:00 6.2 14 Nordeste 26 Nordeste 0 -- -- 89
2019-04-21 07:00:00 6 5 Nordeste 14 Nordeste 0 -- -- 91
2019-04-21 06:00:00 6.4 4 Nordeste 13 Nordeste 0 -- -- 92
2019-04-21 05:00:00 6.8 5 Norte 11 Norte 0 -- -- 92
2019-04-21 04:00:00 7.7 5 Nordeste 21 Nordeste 0 -- -- 89
2019-04-21 03:00:00 8.2 12 Nordeste 19 Nordeste 0 -- -- 87
2019-04-21 02:00:00 8.2 8 Nordeste 21 Nordeste 0 -- -- 86
2019-04-21 01:00:00 8.8 3 Este 27 Nordeste 0 -- -- 83
2019-04-21 00:00:00 9 13 Nordeste 37 Este 0 -- -- 82
2019-04-20 23:00:00 8.6 18 Nordeste 41 Nordeste 0 -- -- 85
2019-04-20 22:00:00 8.9 15 Este 36 Sudeste 0 -- -- 88
2019-04-20 21:00:00 9 14 Este 48 Nordeste 0 -- -- 89
2019-04-20 20:00:00 9.8 20 Nordeste 45 Nordeste 0 -- -- 85
2019-04-20 19:00:00 10 19 Nordeste 44 Nordeste 0 -- -- 86
2019-04-20 18:00:00 10.6 26 Nordeste 59 Este 0 -- -- 84
2019-04-20 17:00:00 10.8 25 Nordeste 53 Nordeste 0 -- -- 81
2019-04-20 16:00:00 11 32 Nordeste 54 Nordeste 0 -- -- 80
2019-04-20 15:00:00 12.2 33 Nordeste 53 Nordeste 0 -- -- 73
2019-04-20 14:00:00 11.7 27 Nordeste 51 Nordeste 0 -- -- 74
2019-04-20 13:00:00 11 24 Nordeste 43 Nordeste 0 -- -- 80
2019-04-20 12:00:00 9.6 15 Nordeste 31 Nordeste 0 -- -- 95
2019-04-20 11:00:00 8.2 14 Nordeste 31 Nordeste 0 -- -- 99
2019-04-20 10:00:00 7.2 11 Nordeste 23 Norte 0.6 -- -- 99
2019-04-20 09:00:00 6.7 5 Nordeste 18 Nordeste 0 -- -- 99
2019-04-20 08:00:00 6.5 12 Nordeste 22 Nordeste 0 -- -- 99
2019-04-20 07:00:00 6.4 10 Nordeste 22 Nordeste 0 -- -- 99
2019-04-20 06:00:00 6.1 8 Norte 19 Norte 0 -- -- 99
2019-04-20 05:00:00 6.3 3 Nordeste 8 Norte 0 -- -- 99
2019-04-20 04:00:00 6.6 0 Calma 5 Este 0 -- -- 98
2019-04-20 03:00:00 6.8 4 Nordeste 15 Nordeste 0 -- -- 98
2019-04-20 02:00:00 7.4 4 Nordeste 10 Nordeste 0 -- -- 97
2019-04-20 01:00:00 7.5 6 Nordeste 14 Norte 0 -- -- 97
2019-04-20 00:00:00 7.9 0 Calma 6 Nordeste 0 -- -- 96
2019-04-19 23:00:00 8.2 0 Calma 12 Norte 0 -- -- 97
2019-04-19 22:00:00 8.3 4 Oeste 12 Oeste 0 -- -- 96
2019-04-19 21:00:00 8.2 7 Oeste 15 Sur 1.8 -- -- 93
2019-04-19 20:00:00 9 8 Sudeste 14 Norte 3.8 -- -- 93
2019-04-19 19:00:00 10.5 10 Noroeste 19 Noroeste 0 -- -- 86
2019-04-19 18:00:00 10.4 8 Oeste 20 Sudoeste 2.2 -- -- 88
2019-04-19 17:00:00 12.6 10 Oeste 21 Oeste 0 -- -- 77
2019-04-19 16:00:00 12.2 6 Noroeste 16 Oeste 0.4 -- -- 78
2019-04-19 15:00:00 10.9 6 Noroeste 19 Norte 0 -- -- 80
2019-04-19 14:00:00 12.9 5 Nordeste 15 Nordeste 0 -- -- 70
2019-04-19 13:00:00 12.4 6 Nordeste 13 Nordeste 0 -- -- 78
2019-04-19 12:00:00 11 3 Nordeste 11 Sudoeste 0 -- -- 83
2019-04-19 11:00:00 9.9 6 Oeste 12 Sudoeste 0 -- -- 88
2019-04-19 10:00:00 7.6 0 Calma 9 Sur 1 -- -- 96
2019-04-19 09:00:00 6.8 6 Sur 10 Sur 1.6 -- -- 96
2019-04-19 08:00:00 7 7 Sudoeste 11 Sudoeste 0.8 -- -- 94
2019-04-19 07:00:00 6.8 9 Sudoeste 15 Sudoeste 4.4 -- -- 93
2019-04-19 06:00:00 7.4 6 Oeste 13 Oeste 0.4 -- -- 96
2019-04-19 05:00:00 7.3 3 Sudoeste 14 Oeste 0 -- -- 95
2019-04-19 04:00:00 7.2 8 Oeste 15 Sudoeste 0 -- -- 96
2019-04-19 03:00:00 7.2 9 Oeste 21 Oeste 0 -- -- 95
2019-04-19 02:00:00 7.4 11 Oeste 21 Oeste 0 -- -- 95
2019-04-19 01:00:00 7.6 10 Oeste 21 Oeste 0 -- -- 93
2019-04-19 00:00:00 7.4 11 Oeste 28 Oeste 2.6 -- -- 91
2019-04-18 23:00:00 7.7 14 Oeste 26 Oeste 0.6 -- -- 92
2019-04-18 22:00:00 7.5 11 Oeste 25 Sudoeste 0 -- -- 87
2019-04-18 21:00:00 7.8 9 Oeste 18 Oeste 0 -- -- 85
2019-04-18 20:00:00 7.5 12 Oeste 32 Sudoeste 0.6 -- -- 89
2019-04-18 19:00:00 7.3 18 Sudoeste 29 Sudoeste 2.6 -- -- 93
2019-04-18 18:00:00 8 11 Sur 26 Sur 0 -- -- 89
2019-04-18 17:00:00 8.3 9 Sur 24 Sudoeste 6 -- -- 92
2019-04-18 16:00:00 8.5 15 Sudoeste 26 Sur 0 -- -- 81
2019-04-18 15:00:00 10.2 5 Este 15 Noroeste 0.6 -- -- 83
2019-04-18 14:00:00 11.9 9 Noroeste 18 Noroeste 0 -- -- 79
2019-04-18 13:00:00 11.6 4 Sudoeste 15 Oeste 0 -- -- 80
2019-04-18 12:00:00 9.9 4 Oeste 10 Oeste 0 -- -- 90
2019-04-18 11:00:00 8.8 2 Sudoeste 12 Sudeste 0 -- -- 90
2019-04-18 10:00:00 8.8 5 Sudeste 19 Sur 0.6 -- -- 96
2019-04-18 09:00:00 8.6 6 Sudoeste 13 Sudoeste 1.4 -- -- 95
2019-04-18 08:00:00 8.4 8 Sudoeste 14 Sudoeste 0 -- -- 92
2019-04-18 07:00:00 8 6 Sudoeste 10 Sudoeste 0 -- -- 95
2019-04-18 06:00:00 8.3 5 Oeste 21 Sudoeste 0.8 -- -- 93
2019-04-18 05:00:00 7.8 9 Sudoeste 21 Sudoeste 0 -- -- 95
2019-04-18 04:00:00 7.6 9 Sudoeste 15 Sur 0 -- -- 96
2019-04-18 03:00:00 8.3 4 Sur 19 Sur 0 -- -- 93
2019-04-18 02:00:00 8.5 9 Sudoeste 24 Sur 0 -- -- 93
2019-04-18 01:00:00 8.7 8 Sur 23 Sur 0 -- -- 93
2019-04-18 00:00:00 8.6 11 Sur 31 Sur 0 -- -- 92
2019-04-17 23:00:00 8.5 14 Sur 30 Sur 0 -- -- 90
2019-04-17 22:00:00 8.7 13 Sur 32 Sur 0.4 -- -- 89
2019-04-17 21:00:00 9.2 15 Sur 28 Sur 0.8 -- -- 89
2019-04-17 20:00:00 9.7 12 Sudoeste 27 Sudoeste 0 -- -- 88
2019-04-17 19:00:00 10.2 10 Sudoeste 32 Sudoeste 0 -- -- 81
2019-04-17 18:00:00 11.5 19 Sudoeste 45 Sur 0 -- -- 85
2019-04-17 17:00:00 14.5 17 Sur 47 Sudoeste 0 -- -- 70
2019-04-17 16:00:00 14.7 20 Sur 44 Sur 0 -- -- 69
2019-04-17 15:00:00 14.9 16 Sur 41 Sur 0 -- -- 71
2019-04-17 14:00:00 14.5 19 Sur 49 Sur 0 -- -- 70
2019-04-17 13:00:00 14.6 17 Sur 43 Sudeste 0 -- -- 66
2019-04-17 12:00:00 14.2 19 Sur 35 Sur 0 -- -- 63
2019-04-17 11:00:00 12.6 15 Sudeste 35 Sudeste 0 -- -- 65
2019-04-17 10:00:00 11.5 17 Sur 33 Sudeste 0 -- -- 68
2019-04-17 09:00:00 10.2 14 Sur 28 Sur 0 -- -- 72
2019-04-17 08:00:00 9.7 15 Sur 27 Sudeste 0 -- -- 76
2019-04-17 07:00:00 9.6 14 Sudeste 32 Sur 0 -- -- 79
2019-04-17 06:00:00 10.8 17 Sur 46 Sur 0 -- -- 71
2019-04-17 05:00:00 11 20 Sur 36 Sudeste 0 -- -- 67
2019-04-17 04:00:00 11.3 23 Sur 39 Sur 0 -- -- 64
2019-04-17 03:00:00 12.1 17 Sur 37 Sudoeste 0 -- -- 62
2019-04-17 02:00:00 14.4 21 Sur 43 Sudoeste 0 -- -- 53
2019-04-17 01:00:00 14.1 22 Sur 43 Sur 0 -- -- 52
2019-04-17 00:00:00 14.2 20 Sur 37 Sur 0 -- -- 57
2019-04-16 23:00:00 14.7 19 Sur 36 Sur 0 -- -- 50
2019-04-16 22:00:00 15.5 13 Sur 31 Sur 0 -- -- 50
2019-04-16 21:00:00 15.9 13 Sudeste 31 Sudeste 0 -- -- 49
2019-04-16 20:00:00 17.2 12 Sudeste 29 Sudeste 0 -- -- 43
2019-04-16 19:00:00 18.6 15 Sur 30 Sudeste 0 -- -- 43
2019-04-16 18:00:00 19.2 14 Sudeste 30 Sudeste 0 -- -- 36
2019-04-16 17:00:00 19.5 15 Sudeste 32 Sudeste 0 -- -- 40
2019-04-16 16:00:00 19.2 16 Sudeste 28 Sudeste 0 -- -- 43
2019-04-16 15:00:00 18.5 10 Sudeste 28 Sudeste 0 -- -- 49
2019-04-16 14:00:00 17.2 17 Sudeste 33 Este 0 -- -- 52
2019-04-16 13:00:00 16 15 Sudeste 29 Este 0 -- -- 57
2019-04-16 12:00:00 15.2 14 Sur 28 Sudeste 0 -- -- 58
2019-04-16 11:00:00 14.1 14 Sudeste 27 Sudeste 0 -- -- 65
2019-04-16 10:00:00 12.6 10 Sudeste 19 Sudeste 0 -- -- 75
2019-04-16 09:00:00 10 6 Sudeste 12 Sudeste 0 -- -- 87
2019-04-16 08:00:00 6.8 5 Sur 10 Sudeste 0 -- -- 97
2019-04-16 07:00:00 6.1 0 Calma 2 Sudoeste 0 -- -- 97
2019-04-16 06:00:00 6.4 0 Calma 4 Oeste 0 -- -- 95
2019-04-16 05:00:00 7.6 2 Oeste 8 Oeste 0 -- -- 95
2019-04-16 04:00:00 8.4 5 Oeste 14 Oeste 0 -- -- 94
2019-04-16 03:00:00 8.6 8 Oeste 14 Oeste 0 -- -- 94
2019-04-16 02:00:00 8.9 8 Sudoeste 14 Oeste 0 -- -- 89
2019-04-16 01:00:00 9.4 8 Oeste 22 Oeste 0 -- -- 82
2019-04-16 00:00:00 10 6 Oeste 20 Sudoeste 0 -- -- 79
2019-04-15 23:00:00 11.3 10 Oeste 23 Oeste 0 -- -- 77
2019-04-15 22:00:00 12.3 11 Oeste 24 Oeste 0 -- -- 74
2019-04-15 21:00:00 13.2 8 Oeste 23 Oeste 0 -- -- 68
2019-04-15 20:00:00 14.6 13 Oeste 27 Noroeste 0 -- -- 64
2019-04-15 19:00:00 15.6 13 Noroeste 25 Noroeste 0 -- -- 68
2019-04-15 18:00:00 16 13 Noroeste 27 Oeste 0 -- -- 69
2019-04-15 17:00:00 17.7 13 Oeste 32 Oeste 0 -- -- 58
2019-04-15 16:00:00 18.6 15 Noroeste 33 Noroeste 0 -- -- 50
2019-04-15 15:00:00 19.1 13 Oeste 27 Noroeste 0 -- -- 49
2019-04-15 14:00:00 19.4 16 Oeste 28 Oeste 0 -- -- 45
2019-04-15 13:00:00 18.5 12 Noroeste 21 Noroeste 0 -- -- 56
2019-04-15 12:00:00 18.1 8 Noroeste 18 Norte 0 -- -- 55
2019-04-15 11:00:00 16.8 6 Oeste 19 Oeste 0 -- -- 54
2019-04-15 10:00:00 15.3 12 Oeste 23 Oeste 0 -- -- 59
2019-04-15 09:00:00 14 8 Sudoeste 37 Sur 0 -- -- 72
2019-04-15 08:00:00 14.9 15 Sur 36 Sur 0 -- -- 72
2019-04-15 07:00:00 15.6 19 Sur 33 Sur 0 -- -- 69
2019-04-15 06:00:00 15.7 19 Sur 35 Sur 0 -- -- 69
2019-04-15 05:00:00 15.8 11 Sur 26 Sur 0 -- -- 68
2019-04-15 04:00:00 15.7 11 Sur 24 Sur 0 -- -- 69
2019-04-15 03:00:00 16 10 Sur 18 Sur 0 -- -- 68
2019-04-15 02:00:00 16.3 8 Sur 21 Sur 0 -- -- 66
2019-04-15 01:00:00 14.2 3 Sur 14 Sur 0 -- -- 78
2019-04-15 00:00:00 15.3 5 Sur 12 Sudeste 0 -- -- 73
2019-04-14 23:00:00 16.2 6 Sur 10 Sudoeste 0 -- -- 72
2019-04-14 22:00:00 16.8 5 Sur 10 Sudeste 0 -- -- 70
2019-04-14 21:00:00 18.5 4 Sur 9 Sur 0 -- -- 63
2019-04-14 20:00:00 20.9 5 Sudoeste 12 Oeste 0 -- -- 53
2019-04-14 19:00:00 21.9 4 Oeste 12 Noroeste 0 -- -- 50
2019-04-14 18:00:00 21.5 4 Sudoeste 14 Sudoeste 0 -- -- 54
2019-04-14 17:00:00 21.5 4 Noroeste 15 Sudoeste 0 -- -- 53
2019-04-14 16:00:00 20.9 4 Sur 10 Noroeste 0 -- -- 58
2019-04-14 15:00:00 19.8 6 Sudeste 13 Este 0 -- -- 61
2019-04-14 14:00:00 18.8 4 Sudeste 15 Sudeste 0 -- -- 66
2019-04-14 13:00:00 18.4 6 Sudeste 17 Este 0 -- -- 69
2019-04-14 12:00:00 16.2 4 Noroeste 9 Este 0 -- -- 76
2019-04-14 11:00:00 13.1 4 Nordeste 10 Noroeste 0 -- -- 91
2019-04-14 10:00:00 12.3 6 Noroeste 12 Oeste 0 -- -- 95
2019-04-14 09:00:00 10.4 3 Noroeste 9 Oeste 0 -- -- 98
2019-04-14 08:00:00 10.3 6 Oeste 10 Oeste 0 -- -- 97
2019-04-14 07:00:00 10.4 5 Noroeste 19 Noroeste 0 -- -- 97
2019-04-14 06:00:00 10.5 9 Noroeste 18 Noroeste 0 -- -- 96
2019-04-14 05:00:00 10.8 10 Oeste 19 Oeste 0 -- -- 94
2019-04-14 04:00:00 11.2 6 Noroeste 16 Noroeste 0 -- -- 93
2019-04-14 03:00:00 11.1 0 Calma 10 Oeste 0 -- -- 88
2019-04-14 02:00:00 11.7 7 Oeste 18 Oeste 0 -- -- 84
2019-04-14 01:00:00 12.4 11 Oeste 22 Oeste 0 -- -- 78
2019-04-14 00:00:00 13.1 13 Oeste 24 Oeste 0 -- -- 59
2019-04-13 23:00:00 13.5 11 Oeste 18 Oeste 0 -- -- 55
2019-04-13 22:00:00 14.1 13 Oeste 21 Oeste 0 -- -- 51
2019-04-13 21:00:00 15 8 Noroeste 21 Noroeste 0 -- -- 49
2019-04-13 20:00:00 17.3 10 Noroeste 25 Noroeste 0 -- -- 46
2019-04-13 19:00:00 18.8 9 Noroeste 22 Noroeste 0 -- -- 40
2019-04-13 18:00:00 19.1 8 Noroeste 25 Noroeste 0 -- -- 43
2019-04-13 17:00:00 19.8 10 Noroeste 23 Noroeste 0 -- -- 42
2019-04-13 16:00:00 19.5 12 Oeste 26 Noroeste 0 -- -- 38
2019-04-13 15:00:00 19.2 9 Oeste 19 Noroeste 0 -- -- 38
2019-04-13 14:00:00 18.3 5 Sur 15 Noroeste 0 -- -- 40
2019-04-13 13:00:00 17.2 5 Noroeste 14 Oeste 0 -- -- 46
2019-04-13 12:00:00 16.3 4 Este 13 Norte 0 -- -- 45
2019-04-13 11:00:00 14.8 5 Noroeste 11 Oeste 0 -- -- 57
2019-04-13 10:00:00 13.7 5 Norte 12 Norte 0 -- -- 65
2019-04-13 09:00:00 10.6 5 Noroeste 9 Oeste 0 -- -- 76
2019-04-13 08:00:00 8.7 7 Oeste 10 Oeste 0 -- -- 79
2019-04-13 07:00:00 8.7 5 Oeste 12 Oeste 0 -- -- 75
2019-04-13 06:00:00 9 8 Oeste 13 Oeste 0 -- -- 66
2019-04-13 05:00:00 8.8 9 Sudoeste 13 Sudoeste 0 -- -- 64
2019-04-13 04:00:00 9.7 6 Oeste 11 Oeste 0 -- -- 59
2019-04-13 03:00:00 9.9 8 Oeste 12 Oeste 0 -- -- 58
2019-04-13 02:00:00 9.9 6 Oeste 10 Oeste 0 -- -- 56
2019-04-13 01:00:00 10.1 8 Oeste 13 Oeste 0 -- -- 54
2019-04-13 00:00:00 10.4 9 Oeste 14 Oeste 0 -- -- 56
2019-04-12 23:00:00 11 6 Oeste 15 Oeste 0 -- -- 54
2019-04-12 22:00:00 11.8 8 Oeste 12 Noroeste 0 -- -- 51
2019-04-12 21:00:00 13.4 6 Oeste 17 Noroeste 0 -- -- 50
2019-04-12 20:00:00 15.8 8 Noroeste 17 Noroeste 0 -- -- 41
2019-04-12 19:00:00 16.9 8 Noroeste 19 Noroeste 0 -- -- 39
2019-04-12 18:00:00 17 7 Norte 23 Noroeste 0 -- -- 40
2019-04-12 17:00:00 17.3 5 Norte 24 Norte 0 -- -- 36
2019-04-12 16:00:00 16.9 9 Noroeste 27 Oeste 0 -- -- 39
2019-04-12 15:00:00 16.5 8 Noroeste 22 Noroeste 0 -- -- 39
2019-04-12 14:00:00 15.7 10 Norte 22 Norte 0 -- -- 39
2019-04-12 13:00:00 15.1 10 Noroeste 22 Norte 0 -- -- 41
2019-04-12 12:00:00 14.3 11 Norte 23 Norte 0 -- -- 42
2019-04-12 11:00:00 13.5 6 Norte 10 Noroeste 0 -- -- 47
2019-04-12 10:00:00 11.9 0 Calma 4 Noroeste 0 -- -- 53
2019-04-12 09:00:00 9.2 3 Noroeste 12 Oeste 0 -- -- 63
2019-04-12 08:00:00 6.5 8 Oeste 13 Oeste 0 -- -- 74
2019-04-12 07:00:00 6.6 6 Oeste 10 Oeste 0 -- -- 77
2019-04-12 06:00:00 6.7 8 Oeste 11 Oeste 0 -- -- 74
2019-04-12 05:00:00 7.3 10 Oeste 14 Oeste 0 -- -- 79
2019-04-12 04:00:00 7.5 11 Oeste 14 Oeste 0 -- -- 82
2019-04-12 03:00:00 7.8 9 Oeste 15 Oeste 0 -- -- 79
2019-04-12 02:00:00 8 8 Oeste 17 Oeste 0 -- -- 76
2019-04-12 01:00:00 8.6 8 Oeste 21 Sudoeste 0 -- -- 72
2019-04-12 00:00:00 9.4 10 Oeste 20 Oeste 0 -- -- 68
2019-04-11 23:00:00 9.5 6 Oeste 10 Oeste 0 -- -- 68
2019-04-11 22:00:00 10.4 2 Noroeste 10 Noroeste 0 -- -- 61
2019-04-11 21:00:00 11.8 4 Noroeste 12 Noroeste 0 -- -- 57
2019-04-11 20:00:00 13.3 6 Noroeste 22 Noroeste 0 -- -- 51
2019-04-11 19:00:00 14.3 9 Norte 26 Norte 0 -- -- 43
2019-04-11 18:00:00 15.1 12 Norte 25 Norte 0 -- -- 45
2019-04-11 17:00:00 14.6 12 Norte 23 Norte 0 -- -- 45
2019-04-11 16:00:00 15.3 9 Noroeste 25 Nordeste 0 -- -- 44
2019-04-11 15:00:00 14.8 10 Noroeste 23 Noroeste 0 -- -- 48
2019-04-11 14:00:00 13.8 6 Norte 28 Noroeste 0 -- -- 56
2019-04-11 13:00:00 12.4 9 Noroeste 16 Noroeste 0 -- -- 64
2019-04-11 12:00:00 11.2 7 Norte 13 Noroeste 0 -- -- 70
2019-04-11 11:00:00 9.1 5 Norte 12 Oeste 0 -- -- 81
2019-04-11 10:00:00 7.3 6 Noroeste 15 Noroeste 0 -- -- 89
2019-04-11 09:00:00 6 9 Noroeste 15 Noroeste 0 -- -- 95
2019-04-11 08:00:00 4.9 7 Noroeste 17 Noroeste 0 -- -- 97
2019-04-11 07:00:00 4.6 8 Oeste 19 Oeste 0 -- -- 97
2019-04-11 06:00:00 4.9 12 Oeste 21 Oeste 0 -- -- 97
2019-04-11 05:00:00 5.2 11 Oeste 20 Oeste 0 -- -- 95
2019-04-11 04:00:00 5.7 10 Oeste 19 Oeste 0 -- -- 93
2019-04-11 03:00:00 6 10 Oeste 24 Oeste 0 -- -- 92
2019-04-11 02:00:00 6.4 13 Oeste 23 Oeste 0 -- -- 91
2019-04-11 01:00:00 7.2 14 Noroeste 28 Noroeste 0 -- -- 87
2019-04-11 00:00:00 7.7 13 Oeste 24 Noroeste 0 -- -- 83
2019-04-10 23:00:00 8.3 13 Noroeste 23 Noroeste 0 -- -- 79
2019-04-10 22:00:00 9.1 9 Noroeste 20 Noroeste 0 -- -- 73
2019-04-10 21:00:00 10.7 10 Noroeste 35 Norte 0 -- -- 64
2019-04-10 20:00:00 11.8 13 Noroeste 34 Noroeste 0 -- -- 58
2019-04-10 19:00:00 12.6 17 Noroeste 35 Noroeste 0 -- -- 56
2019-04-10 18:00:00 12 18 Noroeste 38 Noroeste 0 -- -- 58
2019-04-10 17:00:00 12.2 18 Noroeste 41 Noroeste 0 -- -- 58
2019-04-10 16:00:00 12.5 19 Noroeste 35 Noroeste 0 -- -- 61
2019-04-10 15:00:00 12.1 18 Noroeste 33 Noroeste 0 -- -- 60
2019-04-10 14:00:00 10.9 14 Noroeste 31 Noroeste 0 -- -- 67
2019-04-10 13:00:00 10.3 13 Noroeste 35 Noroeste 0 -- -- 68
2019-04-10 12:00:00 8.8 17 Noroeste 33 Noroeste 0 -- -- 77
2019-04-10 11:00:00 7.7 17 Noroeste 31 Noroeste 0 -- -- 83
2019-04-10 10:00:00 6.8 14 Noroeste 29 Noroeste 0 -- -- 91
2019-04-10 09:00:00 5.5 16 Noroeste 31 Noroeste 0 -- -- 96
2019-04-10 08:00:00 5.3 14 Noroeste 30 Noroeste 0 -- -- 96
2019-04-10 07:00:00 5.4 13 Noroeste 32 Noroeste 0 -- -- 96
2019-04-10 06:00:00 5.6 12 Noroeste 32 Noroeste 0 -- -- 96
2019-04-10 05:00:00 5.9 14 Noroeste 27 Noroeste 0 -- -- 96
2019-04-10 04:00:00 5.9 14 Noroeste 23 Oeste 0 -- -- 96
2019-04-10 03:00:00 6 9 Noroeste 29 Noroeste 0 -- -- 95
2019-04-10 02:00:00 6.2 16 Noroeste 31 Noroeste 0 -- -- 94
2019-04-10 01:00:00 6.8 18 Oeste 32 Oeste 0 -- -- 92
2019-04-10 00:00:00 7.5 12 Noroeste 26 Oeste 0 -- -- 90
2019-04-09 23:00:00 7.7 14 Noroeste 24 Oeste 0 -- -- 89
2019-04-09 22:00:00 8.4 11 Oeste 28 Oeste 0 -- -- 90
2019-04-09 21:00:00 8.7 12 Oeste 29 Oeste 0 -- -- 86
2019-04-09 20:00:00 9.8 14 Oeste 26 Oeste 0 -- -- 83
2019-04-09 19:00:00 9.3 11 Oeste 36 Noroeste 1 -- -- 86
2019-04-09 18:00:00 11.9 15 Oeste 37 Oeste 0 -- -- 71
2019-04-09 17:00:00 12.1 21 Oeste 37 Oeste 0 -- -- 64
2019-04-09 16:00:00 11.4 15 Oeste 45 Oeste 0 -- -- 74
2019-04-09 15:00:00 11.4 19 Oeste 37 Oeste 0 -- -- 66
2019-04-09 14:00:00 10.7 14 Oeste 31 Oeste 0 -- -- 80
2019-04-09 13:00:00 9.5 13 Oeste 39 Oeste 0.6 -- -- 89
2019-04-09 12:00:00 9.2 18 Oeste 36 Oeste 0.2 -- -- 84
2019-04-09 11:00:00 9.3 18 Oeste 35 Oeste 0 -- -- 79
2019-04-09 10:00:00 7.7 9 Oeste 36 Oeste 0 -- -- 87
2019-04-09 09:00:00 6.7 12 Oeste 31 Oeste 0 -- -- 94
2019-04-09 08:00:00 6.4 3 Oeste 13 Oeste 0 -- -- 93
2019-04-09 07:00:00 6.3 7 Oeste 18 Oeste 0 -- -- 91
2019-04-09 06:00:00 6.5 8 Oeste 21 Oeste 0 -- -- 93
2019-04-09 05:00:00 5.8 8 Oeste 20 Oeste 0 -- -- 94
2019-04-09 04:00:00 5.5 6 Oeste 15 Sudoeste 0 -- -- 93
2019-04-09 03:00:00 6 7 Oeste 25 Oeste 0 -- -- 93
2019-04-09 02:00:00 6.1 9 Oeste 23 Oeste 0 -- -- 93
2019-04-09 01:00:00 6.5 11 Oeste 23 Oeste 0 -- -- 89
2019-04-09 00:00:00 7.3 8 Oeste 26 Noroeste 0 -- -- 86
2019-04-08 23:00:00 8.1 11 Oeste 24 Oeste 0 -- -- 82
2019-04-08 22:00:00 9.2 9 Noroeste 24 Oeste 0 -- -- 76
2019-04-08 21:00:00 9.8 9 Oeste 24 Oeste 0 -- -- 67
2019-04-08 20:00:00 11.3 13 Oeste 32 Oeste 0 -- -- 60
2019-04-08 19:00:00 12.4 18 Oeste 37 Oeste 0 -- -- 67
2019-04-08 18:00:00 13.3 15 Oeste 29 Oeste 0 -- -- 67
2019-04-08 17:00:00 12.9 12 Oeste 29 Oeste 0 -- -- 72
2019-04-08 16:00:00 13.2 12 Oeste 26 Oeste 0 -- -- 67
2019-04-08 15:00:00 12.8 13 Oeste 27 Oeste 0 -- -- 71
2019-04-08 14:00:00 11.9 11 Oeste 21 Oeste 0 -- -- 78
2019-04-08 13:00:00 11.2 6 Oeste 20 Noroeste 0 -- -- 86
2019-04-08 12:00:00 9.3 9 Noroeste 19 Noroeste 0.2 -- -- 96
2019-04-08 11:00:00 9.3 9 Noroeste 16 Noroeste 0.8 -- -- 97
2019-04-08 10:00:00 9.2 5 Noroeste 14 Sudoeste 1 -- -- 98
2019-04-08 09:00:00 9 8 Sudoeste 18 Sudoeste 1.8 -- -- 97
2019-04-08 08:00:00 8.9 8 Sudoeste 20 Sudoeste 0.2 -- -- 97
2019-04-08 07:00:00 8.7 12 Sudoeste 29 Sudoeste 0 -- -- 96
2019-04-08 06:00:00 8.6 11 Sudoeste 24 Sudoeste 0.4 -- -- 95
2019-04-08 05:00:00 8.4 7 Oeste 21 Sudoeste 0 -- -- 90
2019-04-08 04:00:00 8.2 4 Sudoeste 23 Sudoeste 0 -- -- 90
2019-04-08 03:00:00 8.6 10 Sudoeste 27 Sudoeste 0 -- -- 92
2019-04-08 02:00:00 9.1 10 Sudoeste 28 Oeste 0 -- -- 95
2019-04-08 01:00:00 9.1 10 Oeste 26 Oeste 1 -- -- 96
2019-04-08 00:00:00 9.4 6 Sudoeste 17 Sudoeste 0 -- -- 95
2019-04-07 23:00:00 9.1 6 Oeste 17 Sudoeste 0 -- -- 95
2019-04-07 22:00:00 9.5 8 Oeste 21 Oeste 0 -- -- 95
2019-04-07 21:00:00 10.1 12 Oeste 25 Oeste 0.8 -- -- 96
2019-04-07 20:00:00 10.2 5 Sudoeste 23 Sur 1.8 -- -- 96
2019-04-07 19:00:00 10.2 12 Sur 23 Sur 0.2 -- -- 97
2019-04-07 18:00:00 9.8 14 Sur 31 Sur 0 -- -- 96
2019-04-07 17:00:00 9.8 18 Sur 33 Sudoeste 0 -- -- 94
2019-04-07 16:00:00 10 17 Sur 31 Sudoeste 0 -- -- 94
2019-04-07 15:00:00 8.6 9 Sur 27 Sur 0.8 -- -- 94
2019-04-07 14:00:00 8.9 12 Sudoeste 21 Sudoeste 0.6 -- -- 92
2019-04-07 13:00:00 9.5 9 Oeste 25 Sudoeste 0 -- -- 82
2019-04-07 12:00:00 9.1 12 Oeste 27 Sudoeste 0 -- -- 81
2019-04-07 11:00:00 7.7 8 Oeste 23 Oeste 0 -- -- 92
2019-04-07 10:00:00 6.5 8 Oeste 25 Oeste 0 -- -- 93
2019-04-07 09:00:00 5.6 9 Oeste 19 Oeste 0 -- -- 94
2019-04-07 08:00:00 5.1 5 Oeste 27 Oeste 0.4 -- -- 90
2019-04-07 07:00:00 5.5 8 Oeste 23 Oeste 0.2 -- -- 94
2019-04-07 06:00:00 5.5 9 Oeste 22 Oeste 0 -- -- 94
2019-04-07 05:00:00 5.5 14 Oeste 26 Oeste 0 -- -- 94
2019-04-07 04:00:00 5.6 17 Oeste 38 Oeste 0.2 -- -- 93
2019-04-07 03:00:00 5.7 13 Oeste 32 Oeste 0 -- -- 92
2019-04-07 02:00:00 5.5 16 Oeste 33 Oeste 0 -- -- 93
2019-04-07 01:00:00 5.5 18 Oeste 38 Oeste 0 -- -- 93
2019-04-07 00:00:00 5.6 18 Oeste 37 Oeste 0.8 -- -- 95
2019-04-06 23:00:00 5.4 13 Oeste 36 Oeste 0.2 -- -- 93
2019-04-06 22:00:00 5.5 17 Oeste 44 Oeste 0 -- -- 88
2019-04-06 21:00:00 5.7 11 Oeste 30 Oeste 1.8 -- -- 89
2019-04-06 20:00:00 7.5 16 Oeste 35 Noroeste 0 -- -- 83
2019-04-06 19:00:00 7 14 Noroeste 38 Oeste 0.2 -- -- 82
2019-04-06 18:00:00 8.1 19 Noroeste 47 Oeste 0 -- -- 80
2019-04-06 17:00:00 7.6 12 Oeste 33 Oeste 1.8 -- -- 92
2019-04-06 16:00:00 7.9 19 Oeste 39 Oeste 1 -- -- 72
2019-04-06 15:00:00 8.8 19 Oeste 40 Oeste 0 -- -- 76
2019-04-06 14:00:00 9.4 18 Oeste 40 Sudoeste 0 -- -- 74
2019-04-06 13:00:00 7.8 21 Oeste 38 Oeste 0.4 -- -- 88
2019-04-06 12:00:00 5.8 21 Oeste 41 Oeste 1 -- -- 88
2019-04-06 11:00:00 4.8 15 Oeste 33 Oeste 0.8 -- -- 90
2019-04-06 10:00:00 5.9 10 Oeste 23 Oeste 0 -- -- 88
2019-04-06 09:00:00 4.4 9 Oeste 21 Oeste 0 -- -- 94
2019-04-06 08:00:00 4.2 6 Oeste 21 Oeste 0 -- -- 94
2019-04-06 07:00:00 4.4 11 Oeste 30 Oeste 0 -- -- 95
2019-04-06 06:00:00 4.8 13 Oeste 29 Oeste 0 -- -- 93
2019-04-06 05:00:00 4.6 13 Oeste 32 Oeste 0 -- -- 93
2019-04-06 04:00:00 4.7 17 Oeste 41 Oeste 0.2 -- -- 94
2019-04-06 03:00:00 4.6 20 Oeste 38 Oeste 0 -- -- 95
2019-04-06 02:00:00 4.6 17 Oeste 39 Noroeste 0 -- -- 95
2019-04-06 01:00:00 4.4 14 Oeste 34 Oeste 1.4 -- -- 96
2019-04-06 00:00:00 4.8 15 Oeste 31 Oeste 0.2 -- -- 94
2019-04-05 23:00:00 4.6 16 Oeste 31 Oeste 0 -- -- 92
2019-04-05 22:00:00 4.6 15 Oeste 32 Oeste 0 -- -- 91
2019-04-05 21:00:00 4.8 17 Oeste 37 Oeste 0.2 -- -- 88
2019-04-05 20:00:00 5.5 21 Oeste 48 Oeste 0.4 -- -- 86
2019-04-05 19:00:00 6 10 Oeste 41 Oeste 0.4 -- -- 84
2019-04-05 18:00:00 8.7 12 Oeste 43 Oeste 0 -- -- 64
2019-04-05 17:00:00 9.3 14 Oeste 39 Oeste 0 -- -- 60
2019-04-05 16:00:00 8.4 18 Oeste 39 Oeste 0 -- -- 57
2019-04-05 15:00:00 8.1 12 Oeste 33 Noroeste 0 -- -- 66
2019-04-05 14:00:00 6.8 15 Oeste 44 Noroeste 0 -- -- 71
2019-04-05 13:00:00 6.1 21 Noroeste 45 Oeste 0 -- -- 79
2019-04-05 12:00:00 5.8 14 Oeste 33 Noroeste 0 -- -- 87
2019-04-05 11:00:00 5.4 19 Oeste 40 Oeste 1.2 -- -- 93
2019-04-05 10:00:00 5.9 8 Sudoeste 17 Sudoeste 0 -- -- 93
2019-04-05 09:00:00 5.1 2 Oeste 9 Oeste 0.2 -- -- 95
2019-04-05 08:00:00 5 2 Oeste 27 Oeste 0.6 -- -- 96
2019-04-05 07:00:00 5.6 11 Noroeste 23 Noroeste 1.2 -- -- 94
2019-04-05 06:00:00 5.9 8 Sudoeste 26 Sudoeste 0.4 -- -- 94
2019-04-05 05:00:00 5.6 10 Sudoeste 29 Sudoeste 1.4 -- -- 95
2019-04-05 04:00:00 5.2 14 Sur 32 Sudoeste 0 -- -- 93
2019-04-05 03:00:00 5.1 15 Sudoeste 31 Sur 0 -- -- 83
2019-04-05 02:00:00 5.4 12 Sudoeste 27 Sudoeste 0 -- -- 66
2019-04-05 01:00:00 6.1 7 Oeste 23 Sudoeste 0 -- -- 74
2019-04-05 00:00:00 6.4 12 Oeste 28 Oeste 0 -- -- 73
2019-04-04 23:00:00 7.1 12 Oeste 22 Oeste 0 -- -- 66
2019-04-04 22:00:00 8 5 Oeste 12 Oeste 0 -- -- 51
2019-04-04 21:00:00 9.4 8 Oeste 25 Oeste 0 -- -- 43
2019-04-04 20:00:00 11.5 14 Oeste 27 Oeste 0 -- -- 36
2019-04-04 19:00:00 13.5 11 Oeste 28 Oeste 0 -- -- 35
2019-04-04 18:00:00 13.8 12 Noroeste 28 Noroeste 0 -- -- 32
2019-04-04 17:00:00 14 8 Noroeste 23 Noroeste 0 -- -- 31
2019-04-04 16:00:00 13.2 10 Oeste 23 Noroeste 0 -- -- 34
2019-04-04 15:00:00 12.1 10 Noroeste 25 Noroeste 0 -- -- 34
2019-04-04 14:00:00 11.3 10 Noroeste 23 Noroeste 0 -- -- 37
2019-04-04 13:00:00 10.1 8 Norte 20 Norte 0 -- -- 40
2019-04-04 12:00:00 8.2 10 Norte 22 Norte 0 -- -- 50
2019-04-04 11:00:00 6.2 12 Noroeste 27 Noroeste 0 -- -- 58
2019-04-04 10:00:00 4.3 9 Noroeste 25 Noroeste 0 -- -- 62
2019-04-04 09:00:00 2.5 12 Noroeste 26 Oeste 0 -- -- 71
2019-04-04 08:00:00 2.1 13 Noroeste 26 Noroeste 0 -- -- 73
2019-04-04 07:00:00 2.4 12 Noroeste 28 Noroeste 0 -- -- 75
2019-04-04 06:00:00 2.9 15 Noroeste 26 Noroeste 0 -- -- 80
2019-04-04 05:00:00 3.3 11 Noroeste 24 Noroeste 0 -- -- 79
2019-04-04 04:00:00 3.9 11 Noroeste 21 Norte 0 -- -- 80
2019-04-04 03:00:00 4.4 10 Noroeste 19 Noroeste 0 -- -- 79
2019-04-04 02:00:00 5.2 12 Noroeste 22 Noroeste 0 -- -- 77
2019-04-04 01:00:00 5.8 12 Noroeste 24 Noroeste 0 -- -- 75
2019-04-04 00:00:00 7 12 Noroeste 25 Noroeste 0 -- -- 70
2019-04-03 23:00:00 8 12 Noroeste 24 Oeste 0 -- -- 65
2019-04-03 22:00:00 9.2 11 Noroeste 22 Noroeste 0 -- -- 62
2019-04-03 21:00:00 10.4 11 Noroeste 24 Oeste 0 -- -- 59
2019-04-03 20:00:00 12 16 Noroeste 29 Noroeste 0 -- -- 57
2019-04-03 19:00:00 13.4 13 Noroeste 34 Noroeste 0 -- -- 56
2019-04-03 18:00:00 14.1 14 Noroeste 29 Oeste 0 -- -- 53
2019-04-03 17:00:00 14.4 14 Noroeste 32 Oeste 0 -- -- 53
2019-04-03 16:00:00 14.9 17 Noroeste 33 Oeste 0 -- -- 49
2019-04-03 15:00:00 15.7 15 Oeste 30 Noroeste 0 -- -- 42
2019-04-03 14:00:00 15.2 9 Oeste 23 Oeste 0 -- -- 50
2019-04-03 13:00:00 13.6 11 Noroeste 23 Noroeste 0 -- -- 53
2019-04-03 12:00:00 13.1 10 Noroeste 22 Noroeste 0 -- -- 51
2019-04-03 11:00:00 11.8 11 Noroeste 19 Noroeste 0 -- -- 51
2019-04-03 10:00:00 10.5 7 Oeste 14 Oeste 0 -- -- 59
2019-04-03 09:00:00 8.4 7 Oeste 12 Oeste 0 -- -- 64
2019-04-03 08:00:00 7.3 8 Oeste 12 Oeste 0 -- -- 76
2019-04-03 07:00:00 7.5 7 Oeste 12 Oeste 0 -- -- 71
2019-04-03 06:00:00 8.5 8 Sudoeste 12 Sudoeste 0 -- -- 84
2019-04-03 05:00:00 8.7 7 Sudoeste 10 Sudoeste 0 -- -- 86
2019-04-03 04:00:00 9.1 5 Sudoeste 14 Oeste 0 -- -- 84
2019-04-03 03:00:00 9.3 6 Oeste 14 Noroeste 0 -- -- 83
2019-04-03 02:00:00 10.2 8 Oeste 18 Oeste 0 -- -- 80
2019-04-03 01:00:00 10.5 7 Oeste 22 Oeste 0 -- -- 79
2019-04-03 00:00:00 10.8 10 Oeste 20 Oeste 0 -- -- 76
2019-04-02 23:00:00 11.6 8 Oeste 15 Oeste 0 -- -- 72
2019-04-02 22:00:00 12.5 10 Oeste 18 Oeste 0 -- -- 67
2019-04-02 21:00:00 13.5 8 Oeste 14 Noroeste 0 -- -- 61
2019-04-02 20:00:00 15.7 8 Noroeste 18 Noroeste 0 -- -- 53
2019-04-02 19:00:00 16.9 6 Noroeste 16 Noroeste 0 -- -- 46
2019-04-02 18:00:00 16.5 5 Noroeste 20 Nordeste 0 -- -- 49
2019-04-02 17:00:00 17.2 9 Norte 22 Nordeste 0 -- -- 49
2019-04-02 16:00:00 16.7 6 Norte 15 Norte 0 -- -- 51
2019-04-02 15:00:00 15.4 5 Nordeste 15 Nordeste 0 -- -- 55
2019-04-02 14:00:00 14.8 10 Norte 18 Norte 0 -- -- 58
2019-04-02 13:00:00 13.9 8 Nordeste 19 Nordeste 0 -- -- 65
2019-04-02 12:00:00 13.5 7 Nordeste 17 Nordeste 0 -- -- 69
2019-04-02 11:00:00 12.4 4 Norte 9 Nordeste 0 -- -- 79
2019-04-02 10:00:00 10.9 2 Noroeste 5 Noroeste 0 -- -- 83
2019-04-02 09:00:00 7.9 0 Calma 7 Oeste 0 -- -- 95
2019-04-02 08:00:00 7.1 5 Oeste 10 Oeste 0 -- -- 93
2019-04-02 07:00:00 7.1 5 Oeste 9 Oeste 0 -- -- 91
2019-04-02 06:00:00 7 8 Oeste 9 Oeste 0 -- -- 92
2019-04-02 05:00:00 7.2 5 Oeste 8 Oeste 0 -- -- 91
2019-04-02 04:00:00 7.2 5 Oeste 6 Oeste 0 -- -- 93
2019-04-02 03:00:00 8.3 4 Sur 13 Sur 0 -- -- 90
2019-04-02 02:00:00 9.3 3 Sur 11 Sur 0 -- -- 89
2019-04-02 01:00:00 9.2 5 Sudoeste 9 Sur 0 -- -- 88
2019-04-02 00:00:00 9.6 4 Sur 8 Sudoeste 0 -- -- 90
2019-04-01 23:00:00 9.5 6 Sudoeste 9 Sudoeste 0 -- -- 90
2019-04-01 22:00:00 9.6 0 Calma 6 Noroeste 0 -- -- 92
2019-04-01 21:00:00 9.9 5 Norte 17 Sudoeste 0 -- -- 90
2019-04-01 20:00:00 10.2 10 Sudoeste 25 Sudoeste 0 -- -- 81
2019-04-01 19:00:00 10.6 13 Sudoeste 24 Sur 0 -- -- 86
2019-04-01 18:00:00 10.9 11 Sudoeste 24 Sudoeste 1.8 -- -- 88
2019-04-01 17:00:00 11.8 8 Sudoeste 33 Sur 0.4 -- -- 83
2019-04-01 16:00:00 15.7 14 Sudeste 24 Sudeste 0 -- -- 63
2019-04-01 15:00:00 16 11 Sudeste 19 Sudeste 0 -- -- 60
2019-04-01 14:00:00 14.3 10 Sudeste 19 Sudeste 0 -- -- 70
2019-04-01 13:00:00 12.2 10 Sur 23 Sudeste 0 -- -- 80
2019-04-01 12:00:00 12.1 9 Sudeste 19 Sudeste 0 -- -- 82
2019-04-01 11:00:00 10.9 3 Este 9 Sudoeste 0 -- -- 89
2019-04-01 10:00:00 9.1 5 Sur 13 Sudeste 0 -- -- 98
2019-04-01 09:00:00 8.6 5 Sudeste 15 Sudeste 0 -- -- 97
2019-04-01 08:00:00 8.5 6 Sudeste 20 Sur 0 -- -- 96
2019-04-01 07:00:00 9.2 6 Sur 15 Sudeste 0 -- -- 99
2019-04-01 06:00:00 9.3 7 Sudeste 20 Sudeste 0 -- -- 99
2019-04-01 05:00:00 9.1 10 Sudeste 22 Sudeste 0 -- -- 98
2019-04-01 04:00:00 8.9 12 Sudeste 22 Sudeste 0 -- -- 97
2019-04-01 03:00:00 8.9 8 Sur 17 Sur 0 -- -- 94
2019-04-01 02:00:00 9.7 10 Sur 18 Sur 0 -- -- 95
2019-04-01 01:00:00 9.7 6 Sudeste 11 Sudeste 0 -- -- 89
2019-04-01 00:00:00 10 2 Sur 12 Oeste 0 -- -- 91
2019-03-31 23:00:00 9.9 0 Calma 12 Sudoeste 0 -- -- 91
2019-03-31 22:00:00 10.1 6 Oeste 12 Oeste 0 -- -- 90
2019-03-31 21:00:00 10.6 3 Sudoeste 6 Nordeste 0 -- -- 86
2019-03-31 20:00:00 12.1 5 Nordeste 14 Nordeste 0 -- -- 77
2019-03-31 19:00:00 13.1 4 Sudeste 14 Sudeste 0 -- -- 80
2019-03-31 18:00:00 13 9 Oeste 19 Sudoeste 0.4 -- -- 73
2019-03-31 17:00:00 11.7 3 Sudoeste 17 Sudoeste 1.2 -- -- 82
2019-03-31 16:00:00 12.7 10 Sudoeste 16 Sudoeste 0 -- -- 78
2019-03-31 15:00:00 14 8 Este 15 Este 0 -- -- 62
2019-03-31 14:00:00 14.2 4 Este 14 Sudeste 0 -- -- 71
2019-03-31 13:00:00 13.6 4 Noroeste 11 Nordeste 0 -- -- 69
2019-03-31 12:00:00 12.3 4 Nordeste 9 Norte 0 -- -- 78
2019-03-31 11:00:00 11.4 5 Noroeste 13 Norte 0 -- -- 81
2019-03-31 10:00:00 11.5 3 Norte 7 Norte 0 -- -- 80
2019-03-31 09:00:00 8.9 0 Calma 4 Noroeste 0 -- -- 91
2019-03-31 08:00:00 8.4 3 Sur 10 Sudoeste 0 -- -- 90
2019-03-31 07:00:00 9.8 10 Sudoeste 18 Sudoeste 0 -- -- 87
2019-03-31 06:00:00 8.3 4 Sur 13 Sur 0 -- -- 87
2019-03-31 05:00:00 8.7 8 Sudoeste 11 Sudoeste 0 -- -- 88
2019-03-31 03:00:00 9.7 8 Sur 21 Sudeste 0 -- -- 85
2019-03-31 01:00:00 9.5 0 Calma 9 Oeste 0 -- -- 84
2019-03-31 00:00:00 9.9 8 Oeste 15 Noroeste 0 -- -- 85
2019-03-30 23:00:00 10.3 7 Noroeste 18 Noroeste 0 -- -- 81
2019-03-30 22:00:00 11.9 5 Noroeste 14 Oeste 0 -- -- 68
2019-03-30 21:00:00 13.4 7 Sudeste 14 Sudeste 0 -- -- 59
2019-03-30 20:00:00 13.9 6 Sur 15 Sudeste 0 -- -- 58
2019-03-30 19:00:00 15.9 8 Sur 21 Sur 0 -- -- 52
2019-03-30 18:00:00 17.9 11 Sudeste 22 Sur 0 -- -- 46
2019-03-30 17:00:00 18.1 11 Sudeste 20 Este 0 -- -- 46
2019-03-30 16:00:00 17.3 5 Sudeste 15 Este 0 -- -- 50
2019-03-30 15:00:00 18.4 9 Sudeste 23 Este 0 -- -- 49
2019-03-30 14:00:00 17.1 6 Sudeste 22 Este 0 -- -- 50
2019-03-30 13:00:00 16.4 8 Sudeste 19 Este 0 -- -- 54
2019-03-30 12:00:00 15.2 10 Este 22 Este 0 -- -- 60
2019-03-30 11:00:00 13.6 12 Este 25 Este 0 -- -- 65
2019-03-30 10:00:00 11.7 13 Este 21 Sudeste 0 -- -- 72
2019-03-30 09:00:00 9.6 13 Sudeste 23 Sudeste 0 -- -- 79
2019-03-30 08:00:00 7.2 11 Sudeste 24 Sudeste 0 -- -- 90
2019-03-30 07:00:00 6.8 15 Sudeste 24 Sudeste 0 -- -- 90
2019-03-30 06:00:00 7 13 Sudeste 25 Sudeste 0 -- -- 90
2019-03-30 05:00:00 7 11 Sudeste 23 Sudeste 0 -- -- 90
2019-03-30 04:00:00 7.1 12 Sudeste 19 Sur 0 -- -- 86
2019-03-30 03:00:00 8.3 9 Sudeste 17 Sudeste 0 -- -- 76
2019-03-30 02:00:00 9.4 10 Sur 20 Sur 0 -- -- 70
2019-03-30 01:00:00 10.2 13 Sur 22 Sudeste 0 -- -- 64
2019-03-30 00:00:00 10.3 14 Sur 24 Sudeste 0 -- -- 67
2019-03-29 23:00:00 10.9 14 Sur 22 Sudeste 0 -- -- 64
2019-03-29 22:00:00 12 12 Sur 23 Sudeste 0 -- -- 56
2019-03-29 21:00:00 12 9 Sur 15 Sudeste 0 -- -- 54
2019-03-29 20:00:00 12.9 7 Sur 12 Sur 0 -- -- 51
2019-03-29 19:00:00 15.5 7 Sur 17 Sudeste 0 -- -- 42
2019-03-29 18:00:00 17 6 Sudeste 18 Sudeste 0 -- -- 38
2019-03-29 17:00:00 17.5 8 Sudeste 21 Este 0 -- -- 37
2019-03-29 16:00:00 17.4 10 Este 22 Sudeste 0 -- -- 37
2019-03-29 15:00:00 17 9 Sudeste 19 Este 0 -- -- 36
2019-03-29 14:00:00 16.1 10 Sudeste 24 Sudeste 0 -- -- 38
2019-03-29 13:00:00 15.1 13 Sudeste 28 Sudeste 0 -- -- 42
2019-03-29 12:00:00 13.9 16 Sudeste 27 Sur 0 -- -- 46
2019-03-29 11:00:00 12.6 14 Sudeste 30 Este 0 -- -- 48
2019-03-29 10:00:00 11 17 Este 33 Sudeste 0 -- -- 51
2019-03-29 09:00:00 9.1 15 Sudeste 34 Sudeste 0 -- -- 52
2019-03-29 08:00:00 7 18 Sudeste 29 Sudeste 0 -- -- 56
2019-03-29 07:00:00 5.4 12 Sudeste 19 Sudeste 0 -- -- 63
2019-03-29 06:00:00 6.3 13 Sudeste 25 Sur 0 -- -- 61
2019-03-29 05:00:00 6.8 15 Sudeste 28 Sudeste 0 -- -- 63
2019-03-29 04:00:00 6.3 10 Sudeste 25 Sudeste 0 -- -- 68
2019-03-29 03:00:00 6.7 14 Sudeste 25 Sudeste 0 -- -- 67
2019-03-29 02:00:00 6.5 11 Sudeste 17 Sudeste 0 -- -- 60
2019-03-29 01:00:00 7.6 12 Sudeste 22 Sur 0 -- -- 51
2019-03-29 00:00:00 8.7 15 Sur 24 Sur 0 -- -- 45
2019-03-28 23:00:00 8.7 12 Sur 17 Sur 0 -- -- 44
2019-03-28 22:00:00 9.3 10 Sur 17 Sur 0 -- -- 41
2019-03-28 21:00:00 9.2 9 Sur 14 Sur 0 -- -- 44
2019-03-28 20:00:00 11 5 Sur 16 Este 0 -- -- 48
2019-03-28 19:00:00 14.1 11 Este 24 Este 0 -- -- 38
2019-03-28 18:00:00 15.2 16 Este 29 Este 0 -- -- 37
2019-03-28 17:00:00 15.9 13 Sudeste 29 Sudeste 0 -- -- 36
2019-03-28 16:00:00 15.9 13 Este 31 Sudeste 0 -- -- 38
2019-03-28 15:00:00 15.4 16 Sudeste 31 Sudeste 0 -- -- 36
2019-03-28 14:00:00 15.3 17 Este 35 Este 0 -- -- 40
2019-03-28 13:00:00 14.6 18 Sudeste 35 Sudeste 0 -- -- 31
2019-03-28 12:00:00 13.4 17 Este 34 Este 0 -- -- 53
2019-03-28 11:00:00 12 18 Este 36 Sudeste 0 -- -- 61
2019-03-28 10:00:00 10.7 16 Sudeste 28 Sudeste 0 -- -- 70
2019-03-28 09:00:00 8.5 16 Sudeste 27 Sudeste 0 -- -- 81
2019-03-28 08:00:00 7.1 12 Sudeste 23 Sudeste 0 -- -- 85
2019-03-28 07:00:00 5.2 9 Sur 13 Sur 0 -- -- 88
2019-03-28 06:00:00 5.2 7 Sur 10 Sudeste 0 -- -- 84
2019-03-28 05:00:00 5.7 6 Sur 10 Sur 0 -- -- 73
2019-03-28 04:00:00 6.8 8 Sur 15 Sur 0 -- -- 68
2019-03-28 03:00:00 6.9 11 Sur 19 Sur 0 -- -- 66
2019-03-28 02:00:00 7.1 13 Sur 21 Sur 0 -- -- 64
2019-03-28 01:00:00 6.5 6 Sur 15 Sur 0 -- -- 63
2019-03-28 00:00:00 6.7 10 Sur 15 Sudeste 0 -- -- 58
2019-03-27 23:00:00 8.8 6 Sudeste 17 Sur 0 -- -- 43
2019-03-27 22:00:00 10.1 7 Sur 10 Sur 0 -- -- 39
2019-03-27 21:00:00 11.2 9 Sur 13 Sur 0 -- -- 38
2019-03-27 20:00:00 12.3 8 Sur 12 Sur 0 -- -- 37
2019-03-27 19:00:00 15.8 7 Sur 28 Nordeste 0 -- -- 32
2019-03-27 18:00:00 17.4 15 Nordeste 30 Nordeste 0 -- -- 21
2019-03-27 17:00:00 17.8 16 Nordeste 31 Nordeste 0 -- -- 24
2019-03-27 16:00:00 17.8 15 Este 33 Este 0 -- -- 25
2019-03-27 15:00:00 17.3 14 Nordeste 32 Sudeste 0 -- -- 24
2019-03-27 14:00:00 16.2 17 Este 31 Este 0 -- -- 31
2019-03-27 13:00:00 15 15 Nordeste 29 Este 0 -- -- 34
2019-03-27 12:00:00 14 14 Este 28 Este 0 -- -- 40
2019-03-27 11:00:00 12.8 11 Nordeste 27 Este 0 -- -- 56
2019-03-27 10:00:00 11.5 18 Este 28 Este 0 -- -- 53
2019-03-27 09:00:00 10.1 12 Este 20 Sudeste 0 -- -- 77
2019-03-27 08:00:00 7.7 10 Sudeste 23 Sudeste 0 -- -- 84
2019-03-27 07:00:00 7 10 Sudeste 22 Este 0 -- -- 88
2019-03-27 06:00:00 7.4 8 Sudeste 15 Sudeste 0 -- -- 87
2019-03-27 05:00:00 8.1 10 Sudeste 18 Sudeste 0 -- -- 89
2019-03-27 04:00:00 8.9 9 Sudeste 19 Sudeste 0 -- -- 85
2019-03-27 03:00:00 9.3 8 Sudeste 15 Sudeste 0 -- -- 75
2019-03-27 02:00:00 10 8 Sur 22 Sur 0 -- -- 69
2019-03-27 01:00:00 11.1 13 Sur 21 Sur 0 -- -- 65
2019-03-27 00:00:00 12.2 13 Sur 27 Sur 0 -- -- 59